Time;durP1;ratioP1;P1;durP2;ratioP2;P2;SDS_P1;SDS_P2;PMS_P1;PMS_P2;Temp;Humidity;BMP_temperature;BMP_pressure;BME280_temperature;BME280_humidity;BME280_pressure;Samples;Min_cycle;Max_cycle;Signal;HPM_P1;HPM_P2
2023/05/27 00:00:46;;;;;;;;;12.00;10.50;;;;;18.72;47.91;101939.03;6245542;22;45441;-63
2023/05/27 00:03:11;;;;;;;;;17.00;12.25;;;;;18.77;47.85;101962.19;6245237;22;45906;-63
2023/05/27 00:05:36;;;;;;;;;12.75;12.25;;;;;18.68;47.68;101958.09;6245406;22;45245;-63
2023/05/27 00:08:02;;;;;;;;;14.75;11.00;;;;;18.56;47.95;101949.69;6244846;22;45564;-63
2023/05/27 00:10:27;;;;;;;;;13.25;12.00;;;;;18.47;48.37;101942.88;6244608;22;46691;-63
2023/05/27 00:12:53;;;;;;;;;18.25;17.75;;;;;18.48;47.75;101950.91;6245487;22;45216;-63
2023/05/27 00:15:18;;;;;;;;;14.75;13.75;;;;;18.47;47.95;101948.28;6243927;22;45292;-63
2023/05/27 00:17:43;;;;;;;;;13.00;13.00;;;;;18.45;48.40;101953.75;6245617;22;45573;-63
2023/05/27 00:20:09;;;;;;;;;11.25;10.25;;;;;18.41;48.82;101940.44;6245273;22;53273;-63
2023/05/27 00:22:36;;;;;;;;;15.75;15.75;;;;;18.42;48.23;101936.81;6244317;22;45485;-63
2023/05/27 00:25:02;;;;;;;;;12.75;11.50;;;;;18.42;48.44;101950.31;6245045;22;45300;-63
2023/05/27 00:27:27;;;;;;;;;12.75;12.00;;;;;18.38;48.05;101956.84;6245364;22;45318;-63
2023/05/27 00:29:53;;;;;;;;;12.00;10.25;;;;;18.32;48.19;101953.44;6243141;22;47371;-63
2023/05/27 00:32:18;;;;;;;;;16.25;13.00;;;;;18.23;48.18;101945.78;6244664;22;56009;-63
2023/05/27 00:34:44;;;;;;;;;19.50;18.50;;;;;18.22;48.23;101944.00;6244975;22;55205;-63
2023/05/27 00:37:10;;;;;;;;;13.25;11.25;;;;;18.18;48.36;101944.22;6246377;22;45517;-63
2023/05/27 00:39:35;;;;;;;;;11.50;11.50;;;;;18.06;48.24;101924.91;6246640;22;46088;-63
2023/05/27 00:42:01;;;;;;;;;13.00;13.00;;;;;18.03;48.18;101927.75;6246722;22;45385;-63
2023/05/27 00:44:27;;;;;;;;;11.00;10.50;;;;;18.07;48.90;101939.28;6246654;22;45574;-63
2023/05/27 00:46:53;;;;;;;;;14.50;11.25;;;;;18.03;48.54;101929.59;6246961;22;45333;-63
2023/05/27 00:49:19;;;;;;;;;16.75;14.00;;;;;17.99;48.35;101934.22;6246824;22;46637;-63
2023/05/27 00:51:44;;;;;;;;;13.75;10.75;;;;;17.92;48.30;101922.81;6246268;22;45224;-63
2023/05/27 00:54:10;;;;;;;;;16.50;14.50;;;;;17.90;48.95;101918.44;6246869;22;45498;-63
2023/05/27 00:56:36;;;;;;;;;11.75;9.00;;;;;17.90;48.94;101923.84;6246837;22;45315;-63
2023/05/27 00:59:02;;;;;;;;;12.00;10.50;;;;;17.91;48.83;101922.91;6246610;22;46117;-63
2023/05/27 01:01:28;;;;;;;;;14.00;10.75;;;;;17.80;48.42;101904.44;6245932;22;45411;-63
2023/05/27 01:03:55;;;;;;;;;10.25;9.75;;;;;17.88;49.08;101918.50;6247149;22;45429;-63
2023/05/27 01:06:30;;;;;;;;;11.50;9.00;;;;;17.90;49.14;101924.72;6246570;22;45473;-63
2023/05/27 01:09:01;;;;;;;;;12.50;10.00;;;;;17.87;48.83;101921.28;6245633;22;45301;-63
2023/05/27 01:11:34;;;;;;;;;8.00;7.50;;;;;17.85;48.81;101915.03;6246607;22;45256;-63
2023/05/27 01:14:06;;;;;;;;;12.25;11.25;;;;;17.82;48.90;101907.06;6246779;22;45574;-63
2023/05/27 01:16:33;;;;;;;;;9.00;8.50;;;;;17.85;48.96;101926.72;6246990;22;45232;-63
2023/05/27 01:18:59;;;;;;;;;14.25;12.00;;;;;17.82;48.97;101923.28;6246483;22;47047;-63
2023/05/27 01:21:29;;;;;;;;;20.00;13.00;;;;;17.66;48.81;101906.84;6270226;22;45288;-63
2023/05/27 01:24:03;;;;;;;;;11.75;11.00;;;;;17.53;48.86;101891.19;6246903;22;45357;-63
2023/05/27 01:26:28;;;;;;;;;18.25;13.00;;;;;17.63;48.60;101913.28;6246743;22;45307;-63
2023/05/27 01:28:54;;;;;;;;;16.25;10.00;;;;;17.59;49.08;101917.03;6245804;22;60944;-63
2023/05/27 01:31:31;;;;;;;;;12.00;10.25;;;;;17.58;49.03;101916.16;6246616;22;45267;-63
2023/05/27 01:34:06;;;;;;;;;13.75;11.00;;;;;17.59;49.00;101922.44;6246577;22;45259;-63
2023/05/27 01:36:41;;;;;;;;;11.75;10.00;;;;;17.54;48.87;101911.84;6246698;22;45642;-63
2023/05/27 01:39:10;;;;;;;;;13.25;11.25;;;;;17.45;48.96;101901.44;6244479;22;46235;-63
2023/05/27 01:41:36;;;;;;;;;12.50;11.25;;;;;17.53;49.37;101912.78;6245871;22;45885;-63
2023/05/27 01:44:03;;;;;;;;;15.00;13.25;;;;;17.20;48.58;101862.00;6245133;22;45260;-63
2023/05/27 01:46:28;;;;;;;;;12.00;10.00;;;;;17.43;48.56;101906.03;6246514;22;45310;-63
2023/05/27 01:48:54;;;;;;;;;11.00;10.75;;;;;17.43;48.92;101899.78;6246459;22;45319;-63
2023/05/27 01:51:19;;;;;;;;;10.00;9.75;;;;;17.37;48.89;101892.78;6246196;22;45335;-63
2023/05/27 01:53:44;;;;;;;;;9.75;9.25;;;;;17.39;48.88;101901.69;6246664;22;45319;-63
2023/05/27 01:56:10;;;;;;;;;12.75;10.00;;;;;17.37;48.71;101901.78;6246482;22;45342;-63
2023/05/27 01:58:35;;;;;;;;;6.75;6.75;;;;;17.37;48.96;101900.88;6246201;22;51751;-63
2023/05/27 02:01:00;;;;;;;;;11.50;9.75;;;;;17.27;48.95;101883.34;6246373;22;45295;-63
2023/05/27 02:03:26;;;;;;;;;9.00;7.00;;;;;17.36;48.77;101897.31;6246881;22;45267;-63
2023/05/27 02:05:52;;;;;;;;;8.75;7.50;;;;;17.33;48.98;101892.06;6246041;22;45372;-63
2023/05/27 02:08:17;;;;;;;;;8.00;6.75;;;;;17.34;48.99;101896.50;6245854;22;45200;-63
2023/05/27 02:10:42;;;;;;;;;8.75;7.50;;;;;17.36;49.03;101894.63;6246278;22;45326;-63
2023/05/27 02:13:08;;;;;;;;;7.50;7.25;;;;;17.33;48.72;101894.75;6246389;22;45359;-63
2023/05/27 02:15:33;;;;;;;;;7.75;7.00;;;;;17.34;49.06;101895.63;6246189;22;53008;-63
2023/05/27 02:17:59;;;;;;;;;10.75;8.25;;;;;17.34;48.91;101896.50;6246441;22;46009;-63
2023/05/27 02:20:24;;;;;;;;;11.00;7.25;;;;;17.34;48.85;101892.91;6244518;22;45463;-63
2023/05/27 02:22:50;;;;;;;;;7.25;6.75;;;;;17.31;48.68;101898.47;6245739;22;45241;-63
2023/05/27 02:25:16;;;;;;;;;8.00;8.00;;;;;17.31;48.49;101898.47;6246169;22;45579;-63
2023/05/27 02:27:43;;;;;;;;;9.50;8.00;;;;;17.29;48.97;101903.03;6245734;22;47052;-63
2023/05/27 02:30:10;;;;;;;;;9.25;6.25;;;;;17.26;48.75;101890.56;6246452;22;45426;-63
2023/05/27 02:32:35;;;;;;;;;9.25;7.00;;;;;17.28;48.93;101899.47;6246597;22;45296;-63
2023/05/27 02:35:00;;;;;;;;;11.00;10.00;;;;;17.23;48.82;101891.56;6246293;22;49780;-63
2023/05/27 02:37:27;;;;;;;;;10.25;9.00;;;;;17.27;48.65;101892.31;6242954;22;46895;-63
2023/05/27 02:39:53;;;;;;;;;11.00;10.00;;;;;17.17;48.48;101872.94;6246207;22;45197;-63
2023/05/27 02:42:18;;;;;;;;;7.00;6.50;;;;;17.21;48.83;101892.59;6246424;22;45260;-63
2023/05/27 02:44:44;;;;;;;;;10.50;9.00;;;;;17.21;48.63;101887.19;6245836;22;52306;-63
2023/05/27 02:47:10;;;;;;;;;9.00;9.00;;;;;17.18;48.13;101882.78;6246013;22;45298;-63
2023/05/27 02:49:36;;;;;;;;;7.50;7.25;;;;;17.19;48.82;101887.25;6246209;22;45347;-63
2023/05/27 02:52:01;;;;;;;;;7.00;5.50;;;;;17.19;48.88;101878.25;6246218;22;45973;-63
2023/05/27 02:54:26;;;;;;;;;9.25;8.00;;;;;17.20;48.92;101883.59;6246517;22;45326;-63
2023/05/27 02:56:52;;;;;;;;;10.50;8.00;;;;;17.12;48.17;101868.66;6245777;22;46046;-63
2023/05/27 02:59:17;;;;;;;;;9.50;7.25;;;;;17.12;48.22;101880.31;6244875;22;56820;-63
2023/05/27 03:01:42;;;;;;;;;7.00;7.00;;;;;17.12;48.32;101892.94;6245913;22;58837;-63
2023/05/27 03:04:07;;;;;;;;;6.00;6.00;;;;;17.11;48.49;101881.28;6245878;22;56912;-63
2023/05/27 03:06:33;;;;;;;;;6.00;5.00;;;;;16.97;48.62;101854.91;6243137;22;54950;-63
2023/05/27 03:08:59;;;;;;;;;7.25;7.00;;;;;17.08;48.47;101875.16;6245579;22;49130;-63
2023/05/27 03:11:25;;;;;;;;;8.00;7.00;;;;;17.12;48.28;101880.31;6246486;22;45496;-63
2023/05/27 03:13:51;;;;;;;;;10.75;6.00;;;;;17.13;48.12;101867.75;6245581;22;45265;-63
2023/05/27 03:16:19;;;;;;;;;8.00;6.00;;;;;17.19;48.30;101881.84;6245385;22;57664;-63
2023/05/27 03:18:45;;;;;;;;;9.00;8.00;;;;;17.19;48.01;101883.66;6246138;22;45201;-63
2023/05/27 03:21:10;;;;;;;;;7.75;6.75;;;;;17.14;48.51;101873.06;6246193;22;45531;-63
2023/05/27 03:23:35;;;;;;;;;8.50;6.75;;;;;17.15;48.39;101882.03;6246509;22;45329;-63
2023/05/27 03:26:01;;;;;;;;;7.00;7.00;;;;;17.17;48.16;101874.75;6246326;22;45461;-63
2023/05/27 03:28:26;;;;;;;;;7.25;7.00;;;;;17.19;48.15;101878.25;6245434;22;53902;-63
2023/05/27 03:30:55;;;;;;;;;9.75;5.00;;;;;17.10;47.99;101866.03;6246386;22;45248;-63
2023/05/27 03:33:22;;;;;;;;;6.00;5.25;;;;;17.20;47.78;101871.94;6245546;22;45441;-63
2023/05/27 03:35:47;;;;;;;;;8.00;8.00;;;;;17.21;47.90;101881.78;6246064;22;45361;-63
2023/05/27 03:38:12;;;;;;;;;10.50;6.00;;;;;17.13;47.98;101871.31;6244986;22;53953;-63
2023/05/27 03:40:37;;;;;;;;;8.25;7.25;;;;;17.14;47.67;101877.56;6245711;22;54412;-63
2023/05/27 03:43:03;;;;;;;;;8.00;6.50;;;;;17.07;47.96;101863.47;6243952;22;45438;-63
2023/05/27 03:45:28;;;;;;;;;6.25;6.00;;;;;17.09;47.79;101866.09;6245875;22;46225;-63
2023/05/27 03:47:53;;;;;;;;;10.25;7.75;;;;;17.11;47.77;101878.59;6245680;22;51163;-63
2023/05/27 03:50:19;;;;;;;;;6.50;6.50;;;;;17.06;48.02;101871.63;6245850;22;45184;-63
2023/05/27 03:52:44;;;;;;;;;10.25;7.75;;;;;17.11;47.72;101877.72;6245271;22;49920;-63
2023/05/27 03:55:10;;;;;;;;;6.25;5.75;;;;;17.04;47.88;101869.88;6246069;22;45274;-63
2023/05/27 03:57:36;;;;;;;;;9.50;7.25;;;;;17.03;47.26;101870.81;6245243;22;45422;-63
2023/05/27 04:00:02;;;;;;;;;5.00;5.00;;;;;16.90;47.43;101866.00;6245474;22;45411;-63
2023/05/27 04:02:28;;;;;;;;;8.00;5.25;;;;;16.96;47.32;101881.94;6245466;22;45524;-63
2023/05/27 04:04:53;;;;;;;;;7.00;4.25;;;;;16.91;47.29;101879.41;6245771;22;46321;-63
2023/05/27 04:07:19;;;;;;;;;6.00;6.00;;;;;16.87;47.55;101876.91;6242000;22;59233;-63
2023/05/27 04:09:44;;;;;;;;;8.00;7.00;;;;;16.87;47.42;101879.59;6246305;22;45312;-63
2023/05/27 04:12:10;;;;;;;;;6.75;6.25;;;;;16.86;47.58;101881.41;6245111;22;45337;-63
2023/05/27 04:14:35;;;;;;;;;7.75;6.75;;;;;16.84;47.61;101883.28;6246628;22;46134;-63
2023/05/27 04:17:01;;;;;;;;;7.25;6.25;;;;;16.81;47.58;101878.00;6244613;22;49408;-63
2023/05/27 04:19:27;;;;;;;;;7.25;7.00;;;;;16.76;47.70;101875.50;6247514;22;45238;-63
2023/05/27 04:21:52;;;;;;;;;8.75;6.25;;;;;16.75;47.77;101875.53;6246916;22;45268;-63
2023/05/27 04:24:17;;;;;;;;;7.00;7.00;;;;;16.76;47.38;101882.72;6245957;22;58891;-63
2023/05/27 04:26:42;;;;;;;;;8.75;5.75;;;;;16.72;47.68;101887.31;6246989;22;45543;-63
2023/05/27 04:29:11;;;;;;;;;9.00;8.00;;;;;16.67;47.76;101883.94;6247163;22;45717;-63
2023/05/27 04:31:37;;;;;;;;;7.50;6.00;;;;;16.65;47.94;101881.28;6246848;22;45485;-63
2023/05/27 04:34:02;;;;;;;;;7.00;7.00;;;;;16.67;47.67;101875.84;6246886;22;46118;-63
2023/05/27 04:36:32;;;;;;;;;8.50;7.25;;;;;16.64;47.71;101879.56;6246732;22;45234;-63
2023/05/27 04:39:00;;;;;;;;;10.50;7.00;;;;;16.69;47.69;101887.47;6246387;22;45422;-63
2023/05/27 04:41:28;;;;;;;;;9.50;8.00;;;;;16.64;47.82;101879.56;6246814;22;45546;-63
2023/05/27 04:43:53;;;;;;;;;7.00;6.25;;;;;16.62;47.88;101877.84;6246743;22;46181;-63
2023/05/27 04:46:18;;;;;;;;;7.00;7.00;;;;;16.56;48.03;101881.66;6247129;22;45563;-63
2023/05/27 04:48:46;;;;;;;;;10.25;9.00;;;;;16.57;48.13;101872.66;6246577;22;50949;-63
2023/05/27 04:51:11;;;;;;;;;10.00;7.25;;;;;16.58;48.04;101884.31;6244700;22;45340;-63
2023/05/27 04:53:38;;;;;;;;;7.75;7.00;;;;;16.52;47.75;101874.63;6246692;22;45950;-63
2023/05/27 04:56:03;;;;;;;;;6.00;5.25;;;;;16.53;48.06;101872.84;6246494;22;45212;-63
2023/05/27 04:58:29;;;;;;;;;7.00;7.00;;;;;16.55;47.92;101871.81;6246782;22;45244;-63
2023/05/27 05:00:56;;;;;;;;;7.00;7.00;;;;;16.57;47.98;101877.16;6246924;22;45329;-63
2023/05/27 05:03:36;;;;;;;;;5.00;5.00;;;;;16.56;48.25;101878.09;6246552;22;45827;-63
2023/05/27 05:06:02;;;;;;;;;8.25;8.25;;;;;16.53;47.59;101875.53;6246658;22;45402;-62
2023/05/27 05:08:27;;;;;;;;;9.50;8.25;;;;;16.42;47.95;101863.34;6246646;22;45336;-63
2023/05/27 05:10:52;;;;;;;;;10.75;8.25;;;;;16.48;48.00;101881.09;6246561;22;53388;-63
2023/05/27 05:13:18;;;;;;;;;6.50;6.00;;;;;16.43;48.08;101880.41;6246736;22;45304;-63
2023/05/27 05:15:43;;;;;;;;;8.50;7.75;;;;;16.38;48.33;101872.47;6246423;22;45295;-63
2023/05/27 05:18:10;;;;;;;;;6.50;6.00;;;;;16.38;48.21;101868.91;6247076;22;45164;-63
2023/05/27 05:20:35;;;;;;;;;7.50;6.00;;;;;16.43;48.59;101875.88;6246400;22;45405;-63
2023/05/27 05:23:01;;;;;;;;;9.25;7.25;;;;;16.46;48.78;101867.69;6246332;22;46183;-63
2023/05/27 05:25:26;;;;;;;;;7.00;7.00;;;;;16.52;48.65;101887.22;6246738;22;45427;-63
2023/05/27 05:27:53;;;;;;;;;8.75;8.75;;;;;16.53;48.22;101889.00;6246663;22;45392;-63
2023/05/27 05:30:18;;;;;;;;;7.00;5.50;;;;;16.49;48.37;101874.78;6246952;22;45285;-63
2023/05/27 05:32:44;;;;;;;;;7.00;7.00;;;;;16.43;48.45;101875.88;6244532;22;45938;-63
2023/05/27 05:35:09;;;;;;;;;5.00;5.00;;;;;16.51;48.70;101894.44;6246983;22;45296;-63
2023/05/27 05:37:35;;;;;;;;;9.75;7.75;;;;;16.53;48.58;101891.69;6246237;22;45564;-63
2023/05/27 05:40:00;;;;;;;;;7.50;7.25;;;;;16.55;48.61;101884.44;6244113;22;49252;-63
2023/05/27 05:42:25;;;;;;;;;10.50;8.50;;;;;16.56;48.24;101887.06;6245813;22;45298;-63
2023/05/27 05:44:52;;;;;;;;;8.00;7.00;;;;;16.54;48.60;101882.66;6246281;22;45750;-63
2023/05/27 05:47:18;;;;;;;;;8.75;6.75;;;;;16.55;48.57;101892.50;6246452;22;45586;-62
2023/05/27 05:49:43;;;;;;;;;9.25;6.75;;;;;16.54;48.52;101897.03;6246840;22;45249;-63
2023/05/27 05:52:08;;;;;;;;;9.25;8.25;;;;;16.37;48.21;101867.16;6246212;22;45243;-63
2023/05/27 05:54:34;;;;;;;;;8.50;7.50;;;;;16.45;48.32;101887.47;6246691;22;45193;-63
2023/05/27 05:57:00;;;;;;;;;9.00;7.00;;;;;16.41;48.36;101890.38;6246175;22;45285;-63
2023/05/27 05:59:26;;;;;;;;;7.25;6.00;;;;;16.32;48.28;101880.78;6246512;22;45334;-63
2023/05/27 06:01:51;;;;;;;;;7.00;7.00;;;;;16.29;48.70;101881.81;6246841;22;45989;-63
2023/05/27 06:04:17;;;;;;;;;6.50;6.50;;;;;16.26;48.83;101867.56;6246807;22;45252;-63
2023/05/27 06:06:42;;;;;;;;;9.50;8.50;;;;;16.40;48.66;101892.16;6246020;22;45248;-63
2023/05/27 06:09:07;;;;;;;;;8.00;7.50;;;;;16.41;48.62;101884.97;6246150;22;45410;-63
2023/05/27 06:11:33;;;;;;;;;7.00;7.00;;;;;16.36;48.90;101876.19;6246052;22;61370;-63
2023/05/27 06:13:58;;;;;;;;;8.75;8.50;;;;;16.38;49.04;101885.09;6245977;22;45335;-63
2023/05/27 06:16:24;;;;;;;;;8.50;6.75;;;;;16.31;49.00;101870.97;6246641;22;45252;-63
2023/05/27 06:18:49;;;;;;;;;11.00;7.00;;;;;16.39;49.10;101884.13;6246621;22;45268;-63
2023/05/27 06:21:14;;;;;;;;;9.00;8.00;;;;;16.38;49.29;101883.25;6245474;22;52864;-63
2023/05/27 06:23:40;;;;;;;;;5.00;5.00;;;;;16.39;49.17;101886.81;6246248;22;45310;-63
2023/05/27 06:26:05;;;;;;;;;9.25;7.25;;;;;16.33;49.20;101879.88;6245297;22;45779;-64
2023/05/27 06:28:31;;;;;;;;;10.50;8.75;;;;;16.38;49.28;101880.56;6243740;22;45748;-64
2023/05/27 06:30:56;;;;;;;;;9.00;7.00;;;;;16.40;49.61;101886.78;6246051;22;45271;-64
2023/05/27 06:33:21;;;;;;;;;10.00;8.00;;;;;16.44;48.91;101895.63;6245558;22;45267;-63
2023/05/27 06:35:46;;;;;;;;;8.50;7.50;;;;;16.37;49.22;101884.22;6244013;22;45205;-64
2023/05/27 06:38:12;;;;;;;;;11.25;9.00;;;;;16.44;49.35;101891.13;6245940;22;45417;-64
2023/05/27 06:40:37;;;;;;;;;11.75;8.25;;;;;16.39;49.41;101873.34;6246237;22;45275;-64
2023/05/27 06:43:03;;;;;;;;;11.50;8.75;;;;;16.48;49.42;101887.34;6245774;22;45230;-64
2023/05/27 06:45:28;;;;;;;;;9.75;8.50;;;;;16.52;49.57;101888.09;6246242;22;45394;-64
2023/05/27 06:47:53;;;;;;;;;9.00;7.75;;;;;16.55;49.41;101882.59;6246176;22;45439;-64
2023/05/27 06:50:19;;;;;;;;;10.50;7.50;;;;;16.52;49.56;101866.53;6244844;22;53254;-63
2023/05/27 06:52:44;;;;;;;;;7.75;6.75;;;;;16.64;49.60;101876.00;6244558;22;45332;-64
2023/05/27 06:55:10;;;;;;;;;7.75;7.75;;;;;16.59;49.47;101869.88;6244353;22;45369;-64
2023/05/27 06:57:35;;;;;;;;;9.75;9.00;;;;;16.64;49.19;101878.69;6244891;22;45509;-64
2023/05/27 07:00:05;;;;;;;;;13.50;9.75;;;;;16.63;49.15;101868.84;6244225;22;45761;-64
2023/05/27 07:02:33;;;;;;;;;9.25;9.25;;;;;16.58;49.61;101865.44;6245272;22;45347;-64
2023/05/27 07:04:58;;;;;;;;;10.25;10.00;;;;;16.42;49.73;101844.50;6245196;22;45319;-64
2023/05/27 07:07:24;;;;;;;;;8.00;7.25;;;;;16.38;49.23;101834.75;6242722;22;45259;-64
2023/05/27 07:09:49;;;;;;;;;11.50;9.50;;;;;16.51;49.77;101850.47;6244644;22;45578;-64
2023/05/27 07:12:15;;;;;;;;;10.00;7.75;;;;;16.43;49.25;101826.50;6244576;22;45313;-64
2023/05/27 07:14:40;;;;;;;;;8.50;7.25;;;;;16.57;49.35;101843.00;6244937;22;45303;-64
2023/05/27 07:17:06;;;;;;;;;7.50;6.00;;;;;16.65;49.23;101854.34;6244533;22;45240;-64
2023/05/27 07:19:31;;;;;;;;;7.25;7.00;;;;;16.70;49.43;101850.59;6242610;22;47258;-64
2023/05/27 07:21:57;;;;;;;;;7.75;5.75;;;;;16.52;49.44;101819.84;6242273;22;45375;-64
2023/05/27 07:24:22;;;;;;;;;10.00;7.00;;;;;16.61;49.24;101824.91;6245508;22;45703;-64
2023/05/27 07:26:48;;;;;;;;;7.25;6.75;;;;;16.83;49.78;101849.16;6244733;22;45562;-64
2023/05/27 07:29:13;;;;;;;;;10.50;7.50;;;;;16.72;49.53;101816.34;6245841;22;46056;-64
2023/05/27 07:31:38;;;;;;;;;7.00;7.00;;;;;16.93;49.50;101837.06;6243901;22;45310;-64
2023/05/27 07:34:04;;;;;;;;;10.25;7.50;;;;;16.74;49.25;101804.56;6269039;22;45374;-64
2023/05/27 07:36:29;;;;;;;;;7.00;7.00;;;;;16.82;49.92;101802.44;6245837;22;45296;-64
2023/05/27 07:38:55;;;;;;;;;11.25;10.25;;;;;16.88;49.45;101809.41;6245176;22;46205;-64
2023/05/27 07:41:21;;;;;;;;;6.75;6.75;;;;;17.05;49.39;101830.28;6246091;22;45429;-64
2023/05/27 07:43:47;;;;;;;;;8.75;8.25;;;;;16.96;49.78;101807.28;6244129;22;45417;-64
2023/05/27 07:46:12;;;;;;;;;10.75;7.00;;;;;17.09;49.46;101812.13;6245662;22;45436;-64
2023/05/27 07:48:37;;;;;;;;;9.50;7.00;;;;;17.29;49.17;101832.88;6242795;22;47789;-64
2023/05/27 07:51:03;;;;;;;;;7.00;7.00;;;;;17.33;49.57;101829.13;6244890;22;45361;-64
2023/05/27 07:53:28;;;;;;;;;8.75;8.50;;;;;17.16;49.29;101792.06;6245920;22;45327;-64
2023/05/27 07:55:54;;;;;;;;;8.00;7.00;;;;;17.53;49.25;101833.63;6243987;22;45431;-64
2023/05/27 07:58:22;;;;;;;;;8.25;7.00;;;;;17.49;48.87;101815.81;6245194;22;46089;-64
2023/05/27 08:00:47;;;;;;;;;7.50;6.00;;;;;17.32;48.76;101776.94;6242897;22;45475;-64
2023/05/27 08:03:13;;;;;;;;;8.75;6.25;;;;;17.71;48.81;101822.00;6245280;22;45409;-64
2023/05/27 08:05:38;;;;;;;;;8.00;6.50;;;;;17.57;48.83;101801.03;6245356;22;45411;-64
2023/05/27 08:08:04;;;;;;;;;9.50;8.25;;;;;17.69;49.15;101798.72;6242643;22;46781;-64
2023/05/27 08:10:29;;;;;;;;;7.75;7.75;;;;;17.91;48.44;101836.47;6245463;22;45339;-64
2023/05/27 08:12:55;;;;;;;;;10.00;9.50;;;;;18.00;48.88;101829.75;6244836;22;45605;-64
2023/05/27 08:15:20;;;;;;;;;8.00;6.25;;;;;18.03;48.05;101822.38;6245456;22;45360;-64
2023/05/27 08:17:46;;;;;;;;;9.50;7.50;;;;;18.02;48.04;101809.81;6268863;22;47399;-64
2023/05/27 08:20:19;;;;;;;;;8.25;6.75;;;;;18.14;48.38;101809.25;6241511;22;45556;-64
2023/05/27 08:22:45;;;;;;;;;7.50;7.50;;;;;18.18;48.38;101801.00;6242836;22;45428;-65
2023/05/27 08:25:11;;;;;;;;;9.50;9.50;;;;;18.33;48.26;101821.91;6244471;22;45330;-65
2023/05/27 08:27:46;;;;;;;;;11.75;9.00;;;;;18.25;47.78;101791.66;6244442;22;45224;-65
2023/05/27 08:30:13;;;;;;;;;7.50;7.50;;;;;18.32;47.98;101791.25;6245576;22;45547;-64
2023/05/27 08:32:40;;;;;;;;;9.75;9.50;;;;;18.38;47.86;101800.94;6245085;22;45221;-65
2023/05/27 08:35:06;;;;;;;;;9.00;7.75;;;;;18.29;47.57;101771.63;6245639;22;45491;-64
2023/05/27 08:37:32;;;;;;;;;8.00;8.00;;;;;18.42;47.80;101791.69;6244749;22;45360;-64
2023/05/27 08:39:57;;;;;;;;;9.00;8.25;;;;;18.56;47.94;101801.84;6242044;22;45552;-64
2023/05/27 08:42:24;;;;;;;;;13.00;7.00;;;;;18.51;47.79;101779.59;6242206;22;45552;-64
2023/05/27 08:44:49;;;;;;;;;9.25;8.00;;;;;18.54;47.58;101774.00;6243227;22;45385;-64
2023/05/27 08:47:15;;;;;;;;;7.00;7.00;;;;;18.53;47.55;101758.75;6242895;22;46866;-64
2023/05/27 08:49:41;;;;;;;;;8.25;6.00;;;;;18.52;47.40;101752.44;6243136;22;45980;-64
2023/05/27 08:52:10;;;;;;;;;8.25;7.00;;;;;18.54;47.82;101740.69;6241431;22;45352;-64
2023/05/27 08:54:39;;;;;;;;;6.25;6.25;;;;;18.77;47.70;101764.75;6244243;22;45489;-64
2023/05/27 08:57:08;;;;;;;;;9.00;8.00;;;;;18.77;47.73;101758.47;6245227;22;47773;-64
2023/05/27 08:59:34;;;;;;;;;9.75;7.00;;;;;18.95;47.90;101779.19;6244578;22;45198;-64
2023/05/27 09:02:02;;;;;;;;;14.50;9.25;;;;;18.79;47.75;101754.72;6246317;22;45201;-64
2023/05/27 09:05:04;;;;;;;;;12.25;8.25;;;;;18.95;48.03;101770.22;6244657;22;45385;-65
2023/05/27 09:07:29;;;;;;;;;6.00;6.00;;;;;18.98;47.95;101756.53;6269268;22;47061;-66
2023/05/27 09:10:09;;;;;;;;;;;;;;;;;;;;;
2023/05/27 09:12:58;;;;;;;;;11.75;7.50;;;;;19.08;47.66;101736.16;6245682;22;69263;-65
2023/05/27 09:15:37;;;;;;;;;7.25;4.25;;;;;19.28;47.82;101764.88;6243978;22;45489;-66
2023/05/27 09:18:13;;;;;;;;;;;;;;;;;;;;;
2023/05/27 09:20:43;;;;;;;;;4.00;1.50;;;;;19.20;47.25;101738.19;6244963;22;72103;-65
2023/05/27 09:23:09;;;;;;;;;12.00;8.75;;;;;19.36;47.56;101753.63;6243633;22;45346;-66
2023/05/27 09:25:35;;;;;;;;;12.75;9.75;;;;;19.29;47.26;101727.84;6243940;22;45327;-66
2023/05/27 09:28:10;;;;;;;;;9.50;8.50;;;;;19.48;47.56;101752.09;6245815;22;46123;-66
2023/05/27 09:30:44;;;;;;;;;8.25;8.25;;;;;19.52;47.35;101750.97;6246291;22;45254;-66
2023/05/27 09:33:10;;;;;;;;;11.50;8.75;;;;;19.48;47.06;101734.03;6243946;22;45256;-66
2023/05/27 09:35:39;;;;;;;;;9.75;6.00;;;;;19.49;47.35;101727.63;6244091;22;45440;-66
2023/05/27 09:38:08;;;;;;;;;7.00;5.25;;;;;19.53;47.94;101710.28;6244265;22;46981;-66
2023/05/27 09:40:43;;;;;;;;;10.75;8.25;;;;;19.62;47.55;101712.47;6246177;22;45331;-66
2023/05/27 09:43:13;;;;;;;;;7.50;6.50;;;;;19.78;47.28;101719.81;6244756;22;45302;-66
2023/05/27 09:45:42;;;;;;;;;7.50;7.50;;;;;19.74;47.65;101704.63;6244592;22;45487;-65
2023/05/27 09:48:12;;;;;;;;;12.25;10.25;;;;;19.89;47.30;101717.34;6244065;22;47571;-66
2023/05/27 09:50:38;;;;;;;;;7.75;7.00;;;;;19.93;46.97;101709.91;6245154;22;45645;-66
2023/05/27 09:53:04;;;;;;;;;8.00;8.00;;;;;20.04;47.34;101718.31;6246022;22;45318;-66
2023/05/27 09:55:30;;;;;;;;;8.50;8.25;;;;;19.97;47.09;101703.38;6245646;22;45362;-66
2023/05/27 09:57:55;;;;;;;;;6.50;6.25;;;;;20.05;47.43;101709.22;6246234;22;45309;-66
2023/05/27 10:00:23;;;;;;;;;11.75;7.00;;;;;20.12;47.44;101716.03;6246468;22;45264;-66
2023/05/27 10:02:48;;;;;;;;;4.50;4.00;;;;;20.16;46.91;101708.59;6246641;22;45280;-66
2023/05/27 10:05:16;;;;;;;;;8.50;7.50;;;;;20.17;46.84;101702.22;6246401;22;45415;-66
2023/05/27 10:07:44;;;;;;;;;8.25;7.00;;;;;20.25;47.22;101707.22;6245341;22;46110;-66
2023/05/27 10:10:11;;;;;;;;;8.25;6.50;;;;;20.30;47.32;101705.13;6246598;22;45303;-66
2023/05/27 10:12:41;;;;;;;;;7.25;5.50;;;;;20.29;47.19;101701.50;6246161;22;45429;-66
2023/05/27 10:15:08;;;;;;;;;7.25;7.00;;;;;20.38;46.65;101694.69;6244483;22;45411;-66
2023/05/27 10:17:47;;;;;;;;;9.50;9.50;;;;;20.42;47.02;101701.69;6245370;22;46086;-66
2023/05/27 10:20:26;;;;;;;;;7.25;7.00;;;;;20.51;47.08;101702.97;6245342;22;45706;-66
2023/05/27 10:22:51;;;;;;;;;8.75;8.50;;;;;20.50;47.21;101688.53;6245662;22;45430;-67
2023/05/27 10:25:17;;;;;;;;;8.25;7.25;;;;;20.51;46.94;101681.28;6246039;22;45303;-65
2023/05/27 10:27:46;;;;;;;;;16.75;15.00;;;;;20.64;46.44;101695.03;6244566;22;45424;-63
2023/05/27 10:30:15;;;;;;;;;7.50;7.00;;;;;20.62;46.68;101680.66;6244059;22;45246;-63
2023/05/27 10:32:48;;;;;;;;;8.00;7.00;;;;;20.70;46.91;101679.25;6246758;22;45274;-63
2023/05/27 10:35:15;;;;;;;;;7.25;5.00;;;;;20.79;46.27;101693.22;6245870;22;45393;-63
2023/05/27 10:37:41;;;;;;;;;8.00;6.50;;;;;20.83;46.22;101686.63;6245538;22;45307;-63
2023/05/27 10:40:07;;;;;;;;;11.25;8.25;;;;;20.86;46.71;101686.44;6244450;22;45399;-63
2023/05/27 10:42:33;;;;;;;;;7.50;6.25;;;;;20.89;46.40;101683.56;6246692;22;45460;-63
2023/05/27 10:45:10;;;;;;;;;8.25;8.00;;;;;20.92;46.18;101686.09;6245721;22;45493;-63
2023/05/27 10:47:36;;;;;;;;;11.25;8.00;;;;;20.98;46.28;101682.13;6245570;22;45306;-63
2023/05/27 10:50:13;;;;;;;;;7.75;7.25;;;;;21.06;45.98;101680.66;6246436;22;45169;-63
2023/05/27 10:52:40;;;;;;;;;11.00;8.25;;;;;21.04;46.21;101660.03;6246029;22;45281;-63
2023/05/27 10:55:06;;;;;;;;;10.25;9.00;;;;;21.16;45.85;101666.53;6246115;22;45228;-64
2023/05/27 10:57:32;;;;;;;;;6.75;6.75;;;;;21.19;45.70;101659.06;6245575;22;45405;-63
2023/05/27 11:00:09;;;;;;;;;5.75;5.75;;;;;21.23;45.47;101654.31;6244747;22;45401;-64
2023/05/27 11:02:37;;;;;;;;;10.50;7.25;;;;;21.26;46.09;101643.25;6246000;22;45312;-65
2023/05/27 11:05:10;;;;;;;;;10.75;9.00;;;;;21.33;45.96;101654.59;6245132;22;45273;-64
2023/05/27 11:07:42;;;;;;;;;9.25;7.25;;;;;21.33;46.28;101649.19;6244693;22;46129;-64
2023/05/27 11:10:08;;;;;;;;;9.00;8.25;;;;;21.38;45.51;101625.31;6243250;22;45493;-64
2023/05/27 11:12:33;;;;;;;;;7.25;7.25;;;;;21.45;45.36;101638.41;6269130;22;45329;-63
2023/05/27 11:14:59;;;;;;;;;13.75;7.50;;;;;21.50;45.71;101630.00;6245462;22;45549;-64
2023/05/27 11:17:28;;;;;;;;;9.00;7.00;;;;;21.50;45.72;101624.56;6245953;22;45273;-64
2023/05/27 11:19:54;;;;;;;;;9.00;8.25;;;;;21.55;45.21;101637.84;6245118;22;45244;-64
2023/05/27 11:22:20;;;;;;;;;8.50;8.25;;;;;21.60;45.65;101628.44;6245168;22;45197;-64